sensor_id;sensor_type;location;lat;lon;timestamp;P1;durP1;ratioP1;P2;durP2;ratioP2
31390;SDS011;18022;45.492;11.548;2023-12-20T00:01:50;30.27;;;17.45;;
31390;SDS011;18022;45.492;11.548;2023-12-20T00:04:16;24.13;;;15.80;;
31390;SDS011;18022;45.492;11.548;2023-12-20T00:06:42;23.50;;;16.27;;
31390;SDS011;18022;45.492;11.548;2023-12-20T00:09:09;22.83;;;16.10;;
31390;SDS011;18022;45.492;11.548;2023-12-20T00:11:35;21.85;;;15.93;;
31390;SDS011;18022;45.492;11.548;2023-12-20T00:14:01;20.92;;;15.63;;
31390;SDS011;18022;45.492;11.548;2023-12-20T00:16:27;23.95;;;15.75;;
31390;SDS011;18022;45.492;11.548;2023-12-20T00:18:53;25.35;;;16.30;;
31390;SDS011;18022;45.492;11.548;2023-12-20T00:21:19;25.10;;;15.48;;
31390;SDS011;18022;45.492;11.548;2023-12-20T00:23:45;22.92;;;16.02;;
31390;SDS011;18022;45.492;11.548;2023-12-20T00:26:11;18.73;;;13.60;;
31390;SDS011;18022;45.492;11.548;2023-12-20T00:28:37;15.07;;;11.20;;
31390;SDS011;18022;45.492;11.548;2023-12-20T00:31:03;15.32;;;12.43;;
31390;SDS011;18022;45.492;11.548;2023-12-20T00:33:29;20.20;;;13.73;;
31390;SDS011;18022;45.492;11.548;2023-12-20T00:35:55;19.95;;;13.82;;
31390;SDS011;18022;45.492;11.548;2023-12-20T00:38:21;15.15;;;11.82;;
31390;SDS011;18022;45.492;11.548;2023-12-20T00:40:47;13.25;;;11.63;;
31390;SDS011;18022;45.492;11.548;2023-12-20T00:43:14;16.98;;;14.30;;
31390;SDS011;18022;45.492;11.548;2023-12-20T00:45:41;16.42;;;13.15;;
31390;SDS011;18022;45.492;11.548;2023-12-20T00:48:07;14.65;;;12.35;;
31390;SDS011;18022;45.492;11.548;2023-12-20T00:50:33;19.05;;;13.38;;
31390;SDS011;18022;45.492;11.548;2023-12-20T00:52:59;18.15;;;13.55;;
31390;SDS011;18022;45.492;11.548;2023-12-20T00:55:25;17.20;;;14.45;;
31390;SDS011;18022;45.492;11.548;2023-12-20T00:57:51;17.27;;;14.20;;
31390;SDS011;18022;45.492;11.548;2023-12-20T01:00:18;14.95;;;12.80;;
31390;SDS011;18022;45.492;11.548;2023-12-20T01:02:44;19.95;;;14.85;;
31390;SDS011;18022;45.492;11.548;2023-12-20T01:05:14;20.13;;;14.95;;
31390;SDS011;18022;45.492;11.548;2023-12-20T01:07:40;18.13;;;14.25;;
31390;SDS011;18022;45.492;11.548;2023-12-20T01:10:06;16.60;;;14.00;;
31390;SDS011;18022;45.492;11.548;2023-12-20T01:12:32;18.58;;;15.15;;
31390;SDS011;18022;45.492;11.548;2023-12-20T01:14:58;18.85;;;14.25;;
31390;SDS011;18022;45.492;11.548;2023-12-20T01:17:24;17.08;;;13.20;;
31390;SDS011;18022;45.492;11.548;2023-12-20T01:19:50;14.10;;;12.50;;
31390;SDS011;18022;45.492;11.548;2023-12-20T01:22:16;16.30;;;12.50;;
31390;SDS011;18022;45.492;11.548;2023-12-20T01:24:42;15.65;;;12.63;;
31390;SDS011;18022;45.492;11.548;2023-12-20T01:27:08;15.93;;;12.35;;
31390;SDS011;18022;45.492;11.548;2023-12-20T01:29:34;17.55;;;13.65;;
31390;SDS011;18022;45.492;11.548;2023-12-20T01:32:01;17.38;;;12.75;;
31390;SDS011;18022;45.492;11.548;2023-12-20T01:34:27;18.88;;;13.57;;
31390;SDS011;18022;45.492;11.548;2023-12-20T01:36:53;15.52;;;12.32;;
31390;SDS011;18022;45.492;11.548;2023-12-20T01:39:19;17.00;;;12.88;;
31390;SDS011;18022;45.492;11.548;2023-12-20T01:41:45;14.00;;;10.93;;
31390;SDS011;18022;45.492;11.548;2023-12-20T01:44:11;16.05;;;12.07;;
31390;SDS011;18022;45.492;11.548;2023-12-20T01:46:37;16.85;;;12.88;;
31390;SDS011;18022;45.492;11.548;2023-12-20T01:49:04;17.30;;;13.50;;
31390;SDS011;18022;45.492;11.548;2023-12-20T01:51:30;18.52;;;12.68;;
31390;SDS011;18022;45.492;11.548;2023-12-20T01:53:56;14.90;;;11.25;;
31390;SDS011;18022;45.492;11.548;2023-12-20T01:56:24;16.63;;;13.23;;
31390;SDS011;18022;45.492;11.548;2023-12-20T01:58:50;18.80;;;12.85;;
31390;SDS011;18022;45.492;11.548;2023-12-20T02:01:16;23.02;;;13.57;;
31390;SDS011;18022;45.492;11.548;2023-12-20T02:03:42;18.38;;;13.75;;
31390;SDS011;18022;45.492;11.548;2023-12-20T02:06:08;24.50;;;16.30;;
31390;SDS011;18022;45.492;11.548;2023-12-20T02:08:35;20.55;;;14.88;;
31390;SDS011;18022;45.492;11.548;2023-12-20T02:11:01;22.52;;;15.43;;
31390;SDS011;18022;45.492;11.548;2023-12-20T02:13:27;22.52;;;15.93;;
31390;SDS011;18022;45.492;11.548;2023-12-20T02:15:54;23.63;;;16.40;;
31390;SDS011;18022;45.492;11.548;2023-12-20T02:18:20;20.92;;;15.20;;
31390;SDS011;18022;45.492;11.548;2023-12-20T02:20:46;21.48;;;14.73;;
31390;SDS011;18022;45.492;11.548;2023-12-20T02:23:13;20.98;;;14.60;;
31390;SDS011;18022;45.492;11.548;2023-12-20T02:25:39;17.55;;;12.82;;
31390;SDS011;18022;45.492;11.548;2023-12-20T02:28:05;21.90;;;14.27;;
31390;SDS011;18022;45.492;11.548;2023-12-20T02:30:31;18.38;;;13.55;;
31390;SDS011;18022;45.492;11.548;2023-12-20T02:32:59;18.65;;;14.23;;
31390;SDS011;18022;45.492;11.548;2023-12-20T02:35:25;18.05;;;13.38;;
31390;SDS011;18022;45.492;11.548;2023-12-20T02:37:51;16.17;;;12.07;;
31390;SDS011;18022;45.492;11.548;2023-12-20T02:40:17;13.82;;;11.20;;
31390;SDS011;18022;45.492;11.548;2023-12-20T02:42:43;15.65;;;11.68;;
31390;SDS011;18022;45.492;11.548;2023-12-20T02:45:09;17.60;;;11.88;;
31390;SDS011;18022;45.492;11.548;2023-12-20T02:47:35;16.80;;;13.02;;
31390;SDS011;18022;45.492;11.548;2023-12-20T02:50:01;17.48;;;11.82;;
31390;SDS011;18022;45.492;11.548;2023-12-20T02:52:28;15.00;;;10.93;;
31390;SDS011;18022;45.492;11.548;2023-12-20T02:54:54;16.37;;;11.67;;
31390;SDS011;18022;45.492;11.548;2023-12-20T02:57:20;17.75;;;11.60;;
31390;SDS011;18022;45.492;11.548;2023-12-20T02:59:46;14.85;;;11.02;;
31390;SDS011;18022;45.492;11.548;2023-12-20T03:02:12;16.17;;;12.35;;
31390;SDS011;18022;45.492;11.548;2023-12-20T03:04:39;16.38;;;11.52;;
31390;SDS011;18022;45.492;11.548;2023-12-20T03:07:05;15.80;;;11.80;;
31390;SDS011;18022;45.492;11.548;2023-12-20T03:09:31;17.10;;;11.85;;
31390;SDS011;18022;45.492;11.548;2023-12-20T03:11:57;18.95;;;12.35;;
31390;SDS011;18022;45.492;11.548;2023-12-20T03:14:23;16.45;;;11.32;;
31390;SDS011;18022;45.492;11.548;2023-12-20T03:16:49;19.70;;;12.85;;
31390;SDS011;18022;45.492;11.548;2023-12-20T03:19:16;28.00;;;15.25;;
31390;SDS011;18022;45.492;11.548;2023-12-20T03:21:42;23.17;;;14.43;;
31390;SDS011;18022;45.492;11.548;2023-12-20T03:24:08;25.38;;;14.75;;
31390;SDS011;18022;45.492;11.548;2023-12-20T03:26:34;20.77;;;13.45;;
31390;SDS011;18022;45.492;11.548;2023-12-20T03:29:00;20.23;;;13.02;;
31390;SDS011;18022;45.492;11.548;2023-12-20T03:31:26;17.67;;;12.10;;
31390;SDS011;18022;45.492;11.548;2023-12-20T03:33:52;25.05;;;15.25;;
31390;SDS011;18022;45.492;11.548;2023-12-20T03:36:19;18.70;;;12.75;;
31390;SDS011;18022;45.492;11.548;2023-12-20T03:38:45;16.95;;;11.93;;
31390;SDS011;18022;45.492;11.548;2023-12-20T03:41:11;22.42;;;14.70;;
31390;SDS011;18022;45.492;11.548;2023-12-20T03:43:37;22.02;;;13.95;;
31390;SDS011;18022;45.492;11.548;2023-12-20T03:46:03;17.48;;;12.30;;
31390;SDS011;18022;45.492;11.548;2023-12-20T03:48:30;21.40;;;13.32;;
31390;SDS011;18022;45.492;11.548;2023-12-20T03:50:56;16.73;;;11.60;;
31390;SDS011;18022;45.492;11.548;2023-12-20T03:53:22;16.35;;;11.40;;
31390;SDS011;18022;45.492;11.548;2023-12-20T03:55:49;21.27;;;12.85;;
31390;SDS011;18022;45.492;11.548;2023-12-20T03:58:15;19.95;;;13.57;;
31390;SDS011;18022;45.492;11.548;2023-12-20T04:00:41;23.88;;;15.25;;
31390;SDS011;18022;45.492;11.548;2023-12-20T04:03:07;19.35;;;13.15;;
31390;SDS011;18022;45.492;11.548;2023-12-20T04:05:33;18.20;;;12.18;;
31390;SDS011;18022;45.492;11.548;2023-12-20T04:07:59;20.35;;;12.48;;
31390;SDS011;18022;45.492;11.548;2023-12-20T04:10:25;17.00;;;12.23;;
31390;SDS011;18022;45.492;11.548;2023-12-20T04:12:51;16.83;;;11.93;;
31390;SDS011;18022;45.492;11.548;2023-12-20T04:15:17;19.08;;;12.15;;
31390;SDS011;18022;45.492;11.548;2023-12-20T04:17:43;19.58;;;12.13;;
31390;SDS011;18022;45.492;11.548;2023-12-20T04:20:10;18.92;;;12.25;;
31390;SDS011;18022;45.492;11.548;2023-12-20T04:22:36;16.90;;;11.63;;
31390;SDS011;18022;45.492;11.548;2023-12-20T04:25:02;20.23;;;13.00;;
31390;SDS011;18022;45.492;11.548;2023-12-20T04:27:28;19.52;;;12.82;;
31390;SDS011;18022;45.492;11.548;2023-12-20T04:29:54;20.10;;;13.10;;
31390;SDS011;18022;45.492;11.548;2023-12-20T04:32:20;17.77;;;13.15;;
31390;SDS011;18022;45.492;11.548;2023-12-20T04:34:46;19.05;;;12.70;;
31390;SDS011;18022;45.492;11.548;2023-12-20T04:37:12;16.20;;;10.70;;
31390;SDS011;18022;45.492;11.548;2023-12-20T04:39:39;15.32;;;10.15;;
31390;SDS011;18022;45.492;11.548;2023-12-20T04:42:06;16.23;;;10.48;;
31390;SDS011;18022;45.492;11.548;2023-12-20T04:44:32;13.63;;;9.65;;
31390;SDS011;18022;45.492;11.548;2023-12-20T04:46:59;18.30;;;10.43;;
31390;SDS011;18022;45.492;11.548;2023-12-20T04:49:25;15.93;;;10.93;;
31390;SDS011;18022;45.492;11.548;2023-12-20T04:51:51;14.43;;;10.40;;
31390;SDS011;18022;45.492;11.548;2023-12-20T04:54:17;13.15;;;9.82;;
31390;SDS011;18022;45.492;11.548;2023-12-20T04:56:43;14.32;;;9.73;;
31390;SDS011;18022;45.492;11.548;2023-12-20T04:59:09;14.98;;;9.45;;
31390;SDS011;18022;45.492;11.548;2023-12-20T05:01:35;14.15;;;9.73;;
31390;SDS011;18022;45.492;11.548;2023-12-20T05:04:01;13.52;;;9.75;;
31390;SDS011;18022;45.492;11.548;2023-12-20T05:06:27;13.40;;;10.18;;
31390;SDS011;18022;45.492;11.548;2023-12-20T05:08:53;12.70;;;9.45;;
31390;SDS011;18022;45.492;11.548;2023-12-20T05:11:19;13.35;;;9.65;;
31390;SDS011;18022;45.492;11.548;2023-12-20T05:13:45;15.70;;;9.85;;
31390;SDS011;18022;45.492;11.548;2023-12-20T05:16:11;12.93;;;9.70;;
31390;SDS011;18022;45.492;11.548;2023-12-20T05:18:39;12.90;;;10.40;;
31390;SDS011;18022;45.492;11.548;2023-12-20T05:21:05;12.82;;;8.95;;
31390;SDS011;18022;45.492;11.548;2023-12-20T05:23:31;13.60;;;9.43;;
31390;SDS011;18022;45.492;11.548;2023-12-20T05:25:58;11.32;;;8.77;;
31390;SDS011;18022;45.492;11.548;2023-12-20T05:28:24;11.88;;;8.32;;
31390;SDS011;18022;45.492;11.548;2023-12-20T05:30:50;14.40;;;9.15;;
31390;SDS011;18022;45.492;11.548;2023-12-20T05:33:17;11.85;;;9.15;;
31390;SDS011;18022;45.492;11.548;2023-12-20T05:35:43;13.05;;;9.23;;
31390;SDS011;18022;45.492;11.548;2023-12-20T05:38:09;14.40;;;10.20;;
31390;SDS011;18022;45.492;11.548;2023-12-20T05:40:35;11.98;;;8.90;;
31390;SDS011;18022;45.492;11.548;2023-12-20T05:43:01;11.73;;;8.70;;
31390;SDS011;18022;45.492;11.548;2023-12-20T05:45:27;12.60;;;8.95;;
31390;SDS011;18022;45.492;11.548;2023-12-20T05:47:53;14.73;;;10.13;;
31390;SDS011;18022;45.492;11.548;2023-12-20T05:50:19;14.52;;;9.70;;
31390;SDS011;18022;45.492;11.548;2023-12-20T05:52:46;13.20;;;9.10;;
31390;SDS011;18022;45.492;11.548;2023-12-20T05:55:12;12.93;;;10.18;;
31390;SDS011;18022;45.492;11.548;2023-12-20T05:57:39;13.38;;;10.18;;
31390;SDS011;18022;45.492;11.548;2023-12-20T06:00:05;14.90;;;10.38;;
31390;SDS011;18022;45.492;11.548;2023-12-20T06:02:31;16.95;;;12.25;;
31390;SDS011;18022;45.492;11.548;2023-12-20T06:04:58;17.05;;;11.20;;
31390;SDS011;18022;45.492;11.548;2023-12-20T06:07:24;16.27;;;10.23;;
31390;SDS011;18022;45.492;11.548;2023-12-20T06:09:50;16.15;;;11.38;;
31390;SDS011;18022;45.492;11.548;2023-12-20T06:12:16;14.45;;;10.48;;
31390;SDS011;18022;45.492;11.548;2023-12-20T06:14:42;15.68;;;11.38;;
31390;SDS011;18022;45.492;11.548;2023-12-20T06:17:08;16.92;;;11.10;;
31390;SDS011;18022;45.492;11.548;2023-12-20T06:19:34;16.13;;;11.75;;
31390;SDS011;18022;45.492;11.548;2023-12-20T06:22:00;15.23;;;11.48;;
31390;SDS011;18022;45.492;11.548;2023-12-20T06:24:26;16.30;;;11.25;;
31390;SDS011;18022;45.492;11.548;2023-12-20T06:26:53;17.17;;;11.93;;
31390;SDS011;18022;45.492;11.548;2023-12-20T06:29:22;17.70;;;12.82;;
31390;SDS011;18022;45.492;11.548;2023-12-20T06:31:48;19.00;;;12.63;;
31390;SDS011;18022;45.492;11.548;2023-12-20T06:34:14;19.08;;;11.40;;
31390;SDS011;18022;45.492;11.548;2023-12-20T06:36:40;17.98;;;11.95;;
31390;SDS011;18022;45.492;11.548;2023-12-20T06:39:06;17.80;;;11.02;;
31390;SDS011;18022;45.492;11.548;2023-12-20T06:41:33;16.65;;;10.30;;
31390;SDS011;18022;45.492;11.548;2023-12-20T06:43:59;15.98;;;11.07;;
31390;SDS011;18022;45.492;11.548;2023-12-20T06:46:25;21.52;;;11.90;;
31390;SDS011;18022;45.492;11.548;2023-12-20T06:48:51;14.20;;;10.95;;
31390;SDS011;18022;45.492;11.548;2023-12-20T06:51:17;15.82;;;11.65;;
31390;SDS011;18022;45.492;11.548;2023-12-20T06:53:45;18.40;;;11.98;;
31390;SDS011;18022;45.492;11.548;2023-12-20T06:56:11;20.15;;;10.57;;
31390;SDS011;18022;45.492;11.548;2023-12-20T06:58:37;14.32;;;11.00;;
31390;SDS011;18022;45.492;11.548;2023-12-20T07:01:03;17.75;;;11.95;;
31390;SDS011;18022;45.492;11.548;2023-12-20T07:03:30;18.00;;;11.32;;
31390;SDS011;18022;45.492;11.548;2023-12-20T07:05:56;17.98;;;12.52;;
31390;SDS011;18022;45.492;11.548;2023-12-20T07:08:22;18.45;;;12.38;;
31390;SDS011;18022;45.492;11.548;2023-12-20T07:10:48;19.15;;;13.10;;
31390;SDS011;18022;45.492;11.548;2023-12-20T07:13:14;20.70;;;14.50;;
31390;SDS011;18022;45.492;11.548;2023-12-20T07:15:40;23.92;;;16.08;;
31390;SDS011;18022;45.492;11.548;2023-12-20T07:18:06;19.70;;;14.32;;
31390;SDS011;18022;45.492;11.548;2023-12-20T07:20:32;19.58;;;14.43;;
31390;SDS011;18022;45.492;11.548;2023-12-20T07:22:58;17.13;;;13.73;;
31390;SDS011;18022;45.492;11.548;2023-12-20T07:25:24;19.42;;;14.27;;
31390;SDS011;18022;45.492;11.548;2023-12-20T07:27:50;22.45;;;15.90;;
31390;SDS011;18022;45.492;11.548;2023-12-20T07:30:16;18.65;;;13.27;;
31390;SDS011;18022;45.492;11.548;2023-12-20T07:32:42;18.02;;;12.52;;
31390;SDS011;18022;45.492;11.548;2023-12-20T07:35:08;19.88;;;12.57;;
31390;SDS011;18022;45.492;11.548;2023-12-20T07:37:34;16.85;;;12.80;;
31390;SDS011;18022;45.492;11.548;2023-12-20T07:40:00;19.58;;;12.43;;
31390;SDS011;18022;45.492;11.548;2023-12-20T07:42:28;21.95;;;14.60;;
31390;SDS011;18022;45.492;11.548;2023-12-20T07:44:54;22.40;;;14.48;;
31390;SDS011;18022;45.492;11.548;2023-12-20T07:47:20;21.95;;;14.88;;
31390;SDS011;18022;45.492;11.548;2023-12-20T07:49:48;27.13;;;18.27;;
31390;SDS011;18022;45.492;11.548;2023-12-20T07:52:14;20.23;;;13.93;;
31390;SDS011;18022;45.492;11.548;2023-12-20T07:54:40;18.75;;;13.15;;
31390;SDS011;18022;45.492;11.548;2023-12-20T07:57:06;16.50;;;12.32;;
31390;SDS011;18022;45.492;11.548;2023-12-20T07:59:32;19.92;;;12.95;;
31390;SDS011;18022;45.492;11.548;2023-12-20T08:01:58;19.70;;;13.30;;
31390;SDS011;18022;45.492;11.548;2023-12-20T08:04:24;19.13;;;12.95;;
31390;SDS011;18022;45.492;11.548;2023-12-20T08:06:50;16.45;;;12.40;;
31390;SDS011;18022;45.492;11.548;2023-12-20T08:09:16;18.63;;;12.55;;
31390;SDS011;18022;45.492;11.548;2023-12-20T08:11:45;17.42;;;12.48;;
31390;SDS011;18022;45.492;11.548;2023-12-20T08:14:12;19.02;;;14.13;;
31390;SDS011;18022;45.492;11.548;2023-12-20T08:16:38;20.55;;;13.45;;
31390;SDS011;18022;45.492;11.548;2023-12-20T08:19:04;22.63;;;14.50;;
31390;SDS011;18022;45.492;11.548;2023-12-20T08:21:30;23.08;;;16.52;;
31390;SDS011;18022;45.492;11.548;2023-12-20T08:23:56;28.65;;;19.95;;
31390;SDS011;18022;45.492;11.548;2023-12-20T08:26:22;18.98;;;14.57;;
31390;SDS011;18022;45.492;11.548;2023-12-20T08:28:49;19.67;;;13.32;;
31390;SDS011;18022;45.492;11.548;2023-12-20T08:31:18;17.58;;;12.13;;
31390;SDS011;18022;45.492;11.548;2023-12-20T08:33:45;20.10;;;13.02;;
31390;SDS011;18022;45.492;11.548;2023-12-20T08:36:11;17.88;;;11.75;;
31390;SDS011;18022;45.492;11.548;2023-12-20T08:38:38;17.52;;;12.10;;
31390;SDS011;18022;45.492;11.548;2023-12-20T08:41:04;17.38;;;12.57;;
31390;SDS011;18022;45.492;11.548;2023-12-20T08:43:39;17.38;;;12.13;;
31390;SDS011;18022;45.492;11.548;2023-12-20T08:46:05;19.55;;;12.50;;
31390;SDS011;18022;45.492;11.548;2023-12-20T08:48:31;22.42;;;13.05;;
31390;SDS011;18022;45.492;11.548;2023-12-20T08:50:57;18.27;;;13.05;;
31390;SDS011;18022;45.492;11.548;2023-12-20T08:53:23;18.45;;;13.38;;
31390;SDS011;18022;45.492;11.548;2023-12-20T08:55:50;17.30;;;13.10;;
31390;SDS011;18022;45.492;11.548;2023-12-20T08:58:16;17.50;;;13.23;;
31390;SDS011;18022;45.492;11.548;2023-12-20T09:00:42;18.13;;;13.48;;
31390;SDS011;18022;45.492;11.548;2023-12-20T09:03:08;22.00;;;14.75;;
31390;SDS011;18022;45.492;11.548;2023-12-20T09:05:34;22.08;;;15.30;;
31390;SDS011;18022;45.492;11.548;2023-12-20T09:08:00;24.70;;;16.90;;
31390;SDS011;18022;45.492;11.548;2023-12-20T09:10:26;20.50;;;15.95;;
31390;SDS011;18022;45.492;11.548;2023-12-20T09:12:53;22.83;;;16.23;;
31390;SDS011;18022;45.492;11.548;2023-12-20T09:15:26;21.60;;;14.73;;
31390;SDS011;18022;45.492;11.548;2023-12-20T09:17:52;20.35;;;14.68;;
31390;SDS011;18022;45.492;11.548;2023-12-20T09:20:19;20.73;;;13.15;;
31390;SDS011;18022;45.492;11.548;2023-12-20T09:22:45;19.83;;;13.70;;
31390;SDS011;18022;45.492;11.548;2023-12-20T09:25:12;19.45;;;13.98;;
31390;SDS011;18022;45.492;11.548;2023-12-20T09:27:39;18.40;;;13.05;;
31390;SDS011;18022;45.492;11.548;2023-12-20T09:30:06;18.80;;;14.02;;
31390;SDS011;18022;45.492;11.548;2023-12-20T09:32:33;19.27;;;14.15;;
31390;SDS011;18022;45.492;11.548;2023-12-20T09:34:59;17.95;;;13.43;;
31390;SDS011;18022;45.492;11.548;2023-12-20T09:37:26;20.52;;;13.45;;
31390;SDS011;18022;45.492;11.548;2023-12-20T09:39:52;17.63;;;12.98;;
31390;SDS011;18022;45.492;11.548;2023-12-20T09:42:21;18.75;;;13.02;;
31390;SDS011;18022;45.492;11.548;2023-12-20T09:44:50;18.95;;;12.88;;
31390;SDS011;18022;45.492;11.548;2023-12-20T09:47:16;18.63;;;13.20;;
31390;SDS011;18022;45.492;11.548;2023-12-20T09:49:46;18.95;;;14.32;;
31390;SDS011;18022;45.492;11.548;2023-12-20T09:52:12;24.45;;;14.07;;
31390;SDS011;18022;45.492;11.548;2023-12-20T09:54:38;19.95;;;13.82;;
31390;SDS011;18022;45.492;11.548;2023-12-20T09:57:06;17.77;;;13.38;;
31390;SDS011;18022;45.492;11.548;2023-12-20T09:59:32;20.17;;;14.23;;
31390;SDS011;18022;45.492;11.548;2023-12-20T10:01:58;18.98;;;13.43;;
31390;SDS011;18022;45.492;11.548;2023-12-20T10:04:28;18.50;;;13.27;;
31390;SDS011;18022;45.492;11.548;2023-12-20T10:07:01;19.90;;;14.15;;
31390;SDS011;18022;45.492;11.548;2023-12-20T10:09:29;21.90;;;15.27;;
31390;SDS011;18022;45.492;11.548;2023-12-20T10:11:57;20.88;;;15.30;;
31390;SDS011;18022;45.492;11.548;2023-12-20T10:14:23;24.38;;;16.27;;
31390;SDS011;18022;45.492;11.548;2023-12-20T10:16:49;22.50;;;15.88;;
31390;SDS011;18022;45.492;11.548;2023-12-20T10:19:19;20.73;;;16.20;;
31390;SDS011;18022;45.492;11.548;2023-12-20T10:21:45;26.95;;;19.27;;
31390;SDS011;18022;45.492;11.548;2023-12-20T10:24:16;24.15;;;17.08;;
31390;SDS011;18022;45.492;11.548;2023-12-20T10:26:42;23.77;;;17.35;;
31390;SDS011;18022;45.492;11.548;2023-12-20T10:29:08;26.15;;;20.30;;
31390;SDS011;18022;45.492;11.548;2023-12-20T10:31:35;29.13;;;19.70;;
31390;SDS011;18022;45.492;11.548;2023-12-20T10:36:30;27.20;;;18.90;;
31390;SDS011;18022;45.492;11.548;2023-12-20T10:38:56;21.53;;;17.17;;
31390;SDS011;18022;45.492;11.548;2023-12-20T10:41:26;23.50;;;17.80;;
31390;SDS011;18022;45.492;11.548;2023-12-20T10:43:54;21.42;;;16.58;;
31390;SDS011;18022;45.492;11.548;2023-12-20T10:46:20;23.58;;;16.67;;
31390;SDS011;18022;45.492;11.548;2023-12-20T10:48:46;21.10;;;15.98;;
31390;SDS011;18022;45.492;11.548;2023-12-20T10:51:14;20.98;;;14.68;;
31390;SDS011;18022;45.492;11.548;2023-12-20T10:53:41;19.55;;;13.90;;
31390;SDS011;18022;45.492;11.548;2023-12-20T10:56:08;20.95;;;13.65;;
31390;SDS011;18022;45.492;11.548;2023-12-20T10:58:37;19.38;;;14.10;;
31390;SDS011;18022;45.492;11.548;2023-12-20T11:01:05;19.67;;;15.07;;
31390;SDS011;18022;45.492;11.548;2023-12-20T11:03:32;20.65;;;14.80;;
31390;SDS011;18022;45.492;11.548;2023-12-20T11:08:50;23.25;;;16.73;;
31390;SDS011;18022;45.492;11.548;2023-12-20T11:13:57;19.00;;;15.27;;
31390;SDS011;18022;45.492;11.548;2023-12-20T11:16:25;20.95;;;15.85;;
31390;SDS011;18022;45.492;11.548;2023-12-20T11:18:51;21.58;;;16.48;;
31390;SDS011;18022;45.492;11.548;2023-12-20T11:21:17;22.63;;;16.50;;
31390;SDS011;18022;45.492;11.548;2023-12-20T11:23:43;23.75;;;16.75;;
31390;SDS011;18022;45.492;11.548;2023-12-20T11:26:09;20.48;;;15.48;;
31390;SDS011;18022;45.492;11.548;2023-12-20T11:28:35;20.40;;;16.42;;
31390;SDS011;18022;45.492;11.548;2023-12-20T11:31:01;25.30;;;16.65;;
31390;SDS011;18022;45.492;11.548;2023-12-20T11:35:57;19.88;;;14.82;;
31390;SDS011;18022;45.492;11.548;2023-12-20T11:38:24;19.60;;;14.75;;
31390;SDS011;18022;45.492;11.548;2023-12-20T11:40:51;22.00;;;16.02;;
31390;SDS011;18022;45.492;11.548;2023-12-20T11:46:07;23.70;;;17.85;;
31390;SDS011;18022;45.492;11.548;2023-12-20T11:48:37;25.90;;;16.40;;
31390;SDS011;18022;45.492;11.548;2023-12-20T11:51:10;28.40;;;19.23;;
31390;SDS011;18022;45.492;11.548;2023-12-20T11:53:36;26.13;;;18.98;;
31390;SDS011;18022;45.492;11.548;2023-12-20T11:56:03;24.40;;;18.23;;
31390;SDS011;18022;45.492;11.548;2023-12-20T11:58:29;23.10;;;16.73;;
31390;SDS011;18022;45.492;11.548;2023-12-20T12:00:55;24.58;;;17.70;;
31390;SDS011;18022;45.492;11.548;2023-12-20T12:03:22;22.88;;;16.98;;
31390;SDS011;18022;45.492;11.548;2023-12-20T12:05:49;22.48;;;17.77;;
31390;SDS011;18022;45.492;11.548;2023-12-20T12:08:15;27.02;;;18.77;;
31390;SDS011;18022;45.492;11.548;2023-12-20T12:10:42;23.83;;;17.75;;
31390;SDS011;18022;45.492;11.548;2023-12-20T12:13:08;38.70;;;25.02;;
31390;SDS011;18022;45.492;11.548;2023-12-20T12:15:34;44.10;;;27.23;;
31390;SDS011;18022;45.492;11.548;2023-12-20T12:18:01;40.35;;;25.75;;
31390;SDS011;18022;45.492;11.548;2023-12-20T12:20:27;30.35;;;20.83;;
31390;SDS011;18022;45.492;11.548;2023-12-20T12:22:57;29.95;;;20.58;;
31390;SDS011;18022;45.492;11.548;2023-12-20T12:25:23;35.78;;;25.30;;
31390;SDS011;18022;45.492;11.548;2023-12-20T12:27:50;36.13;;;23.05;;
31390;SDS011;18022;45.492;11.548;2023-12-20T12:30:17;33.25;;;22.65;;
31390;SDS011;18022;45.492;11.548;2023-12-20T12:32:43;26.73;;;18.88;;
31390;SDS011;18022;45.492;11.548;2023-12-20T12:35:10;25.83;;;17.73;;
31390;SDS011;18022;45.492;11.548;2023-12-20T12:37:39;23.10;;;17.17;;
31390;SDS011;18022;45.492;11.548;2023-12-20T12:40:06;22.15;;;16.50;;
31390;SDS011;18022;45.492;11.548;2023-12-20T12:42:33;22.15;;;15.70;;
31390;SDS011;18022;45.492;11.548;2023-12-20T12:44:59;24.05;;;16.30;;
31390;SDS011;18022;45.492;11.548;2023-12-20T12:47:25;23.40;;;16.73;;
31390;SDS011;18022;45.492;11.548;2023-12-20T12:49:51;22.17;;;15.80;;
31390;SDS011;18022;45.492;11.548;2023-12-20T12:52:18;23.38;;;15.93;;
31390;SDS011;18022;45.492;11.548;2023-12-20T12:54:44;23.50;;;17.23;;
31390;SDS011;18022;45.492;11.548;2023-12-20T12:57:10;23.25;;;16.67;;
31390;SDS011;18022;45.492;11.548;2023-12-20T12:59:37;24.98;;;17.67;;
31390;SDS011;18022;45.492;11.548;2023-12-20T13:02:03;28.85;;;19.02;;
31390;SDS011;18022;45.492;11.548;2023-12-20T13:04:29;24.63;;;19.05;;
31390;SDS011;18022;45.492;11.548;2023-12-20T13:06:55;25.38;;;18.95;;
31390;SDS011;18022;45.492;11.548;2023-12-20T13:09:22;26.88;;;17.45;;
31390;SDS011;18022;45.492;11.548;2023-12-20T13:11:48;23.48;;;16.58;;
31390;SDS011;18022;45.492;11.548;2023-12-20T13:14:14;22.30;;;16.63;;
31390;SDS011;18022;45.492;11.548;2023-12-20T13:16:47;22.30;;;16.08;;
31390;SDS011;18022;45.492;11.548;2023-12-20T13:19:15;21.05;;;16.05;;
31390;SDS011;18022;45.492;11.548;2023-12-20T13:21:42;22.20;;;14.82;;
31390;SDS011;18022;45.492;11.548;2023-12-20T13:24:08;20.92;;;15.27;;
31390;SDS011;18022;45.492;11.548;2023-12-20T13:26:34;21.35;;;15.88;;
31390;SDS011;18022;45.492;11.548;2023-12-20T13:29:00;21.95;;;16.25;;
31390;SDS011;18022;45.492;11.548;2023-12-20T13:31:26;22.13;;;17.02;;
31390;SDS011;18022;45.492;11.548;2023-12-20T13:33:53;26.40;;;18.95;;
31390;SDS011;18022;45.492;11.548;2023-12-20T13:36:22;26.83;;;18.77;;
31390;SDS011;18022;45.492;11.548;2023-12-20T13:38:48;29.58;;;19.52;;
31390;SDS011;18022;45.492;11.548;2023-12-20T13:41:14;29.40;;;21.30;;
31390;SDS011;18022;45.492;11.548;2023-12-20T13:43:40;30.00;;;21.60;;
31390;SDS011;18022;45.492;11.548;2023-12-20T13:46:07;25.98;;;19.20;;
31390;SDS011;18022;45.492;11.548;2023-12-20T13:48:34;24.80;;;19.05;;
31390;SDS011;18022;45.492;11.548;2023-12-20T13:51:00;32.55;;;23.17;;
31390;SDS011;18022;45.492;11.548;2023-12-20T13:53:27;36.53;;;27.30;;
31390;SDS011;18022;45.492;11.548;2023-12-20T13:55:53;32.70;;;23.90;;
31390;SDS011;18022;45.492;11.548;2023-12-20T13:58:20;29.15;;;20.08;;
31390;SDS011;18022;45.492;11.548;2023-12-20T14:00:46;29.45;;;21.00;;
31390;SDS011;18022;45.492;11.548;2023-12-20T14:03:12;29.15;;;20.38;;
31390;SDS011;18022;45.492;11.548;2023-12-20T14:05:38;27.48;;;19.60;;
31390;SDS011;18022;45.492;11.548;2023-12-20T14:08:04;27.02;;;20.70;;
31390;SDS011;18022;45.492;11.548;2023-12-20T14:10:30;33.40;;;22.90;;
31390;SDS011;18022;45.492;11.548;2023-12-20T14:12:56;26.08;;;19.33;;
31390;SDS011;18022;45.492;11.548;2023-12-20T14:15:22;21.08;;;15.55;;
31390;SDS011;18022;45.492;11.548;2023-12-20T14:17:50;19.95;;;13.95;;